Time,TemperatureF,DewpointF,PressureIn,WindDirection,WindDirectionDegrees,WindSpeedMPH,WindSpeedGustMPH,Humidity,HourlyPrecipIn,Conditions,Clouds,dailyrainin,SolarRadiationWatts/m^2,SoftwareType,DateUTC
2013-03-29 00:05:00,50.1,47.6,30.13,SW,236,0.0,1.0,91,0.00,,,0.00,0,Wunderground v.1.15,2013-03-29 07:05:00,
2013-03-29 00:11:00,50.1,47.6,30.13,SW,236,0.0,0.0,91,0.00,,,0.00,0,Wunderground v.1.15,2013-03-29 07:11:00,
2013-03-29 00:17:00,50.1,47.6,30.13,SW,236,0.0,0.0,91,0.00,,,0.00,0,Wunderground v.1.15,2013-03-29 07:17:00,
2013-03-29 00:23:00,50.2,47.7,30.13,SW,236,0.0,0.0,91,0.00,,,0.00,0,Wunderground v.1.15,2013-03-29 07:23:00,
2013-03-29 00:28:00,50.2,47.7,30.14,SW,236,0.0,0.0,91,0.00,,,0.00,0,Wunderground v.1.15,2013-03-29 07:28:00,
2013-03-29 00:34:00,50.1,47.6,30.14,SW,236,0.0,0.0,91,0.00,,,0.00,0,Wunderground v.1.15,2013-03-29 07:34:00,
2013-03-29 00:39:00,49.9,47.4,30.14,SW,236,0.0,0.0,91,0.00,,,0.00,0,Wunderground v.1.15,2013-03-29 07:39:00,
2013-03-29 00:44:00,49.8,47.6,30.14,SW,236,0.0,0.0,92,0.00,,,0.00,0,Wunderground v.1.15,2013-03-29 07:44:00,
2013-03-29 00:49:00,49.6,47.4,30.14,SW,236,0.0,0.0,92,0.00,,,0.00,0,Wunderground v.1.15,2013-03-29 07:49:00,
2013-03-29 00:54:00,49.6,47.4,30.14,SW,236,0.0,0.0,92,0.00,,,0.00,0,Wunderground v.1.15,2013-03-29 07:54:00,
2013-03-29 00:59:00,49.8,47.6,30.14,SW,236,0.0,0.0,92,0.00,,,0.00,0,Wunderground v.1.15,2013-03-29 07:59:00,
2013-03-29 01:05:00,49.9,47.7,30.14,SW,236,0.0,2.0,92,0.00,,,0.00,0,Wunderground v.1.15,2013-03-29 08:05:00,
2013-03-29 01:11:00,49.8,47.6,30.14,SSE,167,1.0,1.0,92,0.00,,,0.00,0,Wunderground v.1.15,2013-03-29 08:11:00,
2013-03-29 01:16:00,49.8,47.6,30.14,SSE,162,1.0,3.0,92,0.00,,,0.00,0,Wunderground v.1.15,2013-03-29 08:16:00,
2013-03-29 01:21:00,49.9,47.7,30.14,NE,45,1.0,1.0,92,0.00,,,0.00,0,Wunderground v.1.15,2013-03-29 08:21:00,
2013-03-29 01:27:00,49.9,47.7,30.14,NE,45,1.0,1.0,92,0.00,,,0.00,0,Wunderground v.1.15,2013-03-29 08:27:00,
2013-03-29 01:32:00,49.9,47.7,30.14,NE,45,0.0,0.0,92,0.00,,,0.00,0,Wunderground v.1.15,2013-03-29 08:32:00,
2013-03-29 01:37:00,50.1,47.9,30.15,NE,45,0.0,0.0,92,0.00,,,0.00,0,Wunderground v.1.15,2013-03-29 08:37:00,
2013-03-29 01:42:00,50.1,47.9,30.15,WSW,244,0.0,3.0,92,0.00,,,0.00,0,Wunderground v.1.15,2013-03-29 08:42:00,
2013-03-29 01:47:00,49.9,47.7,30.15,WSW,244,1.0,3.0,92,0.00,,,0.00,0,Wunderground v.1.15,2013-03-29 08:47:00,
2013-03-29 01:52:00,49.6,47.4,30.15,WSW,244,0.0,1.0,92,0.00,,,0.00,0,Wunderground v.1.15,2013-03-29 08:52:00,
2013-03-29 01:58:00,49.5,47.6,30.15,WSW,244,0.0,1.0,93,0.00,,,0.00,0,Wunderground v.1.15,2013-03-29 08:58:00,
2013-03-29 02:03:00,49.4,47.5,30.15,WSW,244,0.0,1.0,93,0.00,,,0.00,0,Wunderground v.1.15,2013-03-29 09:03:00,
2013-03-29 02:08:00,49.4,47.5,30.15,WSW,244,0.0,1.0,93,0.00,,,0.00,0,Wunderground v.1.15,2013-03-29 09:08:00,
2013-03-29 02:13:00,49.5,47.6,30.15,WSW,244,0.0,0.0,93,0.00,,,0.00,0,Wunderground v.1.15,2013-03-29 09:13:00,
2013-03-29 02:19:00,49.5,47.6,30.16,WSW,244,0.0,0.0,93,0.00,,,0.00,0,Wunderground v.1.15,2013-03-29 09:19:00,
2013-03-29 02:24:00,49.4,47.5,30.16,WSW,244,0.0,1.0,93,0.00,,,0.00,0,Wunderground v.1.15,2013-03-29 09:24:00,
2013-03-29 02:29:00,49.2,47.3,30.15,WSW,244,0.0,1.0,93,0.00,,,0.00,0,Wunderground v.1.15,2013-03-29 09:29:00,
2013-03-29 02:34:00,49.2,47.5,30.16,WSW,244,0.0,0.0,94,0.00,,,0.00,0,Wunderground v.1.15,2013-03-29 09:34:00,
2013-03-29 02:39:00,49.2,47.3,30.16,WSW,244,0.0,1.0,93,0.00,,,0.00,0,Wunderground v.1.15,2013-03-29 09:39:00,
2013-03-29 02:44:00,49.4,47.5,30.16,WSW,244,0.0,0.0,93,0.00,,,0.00,0,Wunderground v.1.15,2013-03-29 09:44:00,
2013-03-29 02:49:00,49.4,47.5,30.16,WSW,244,0.0,0.0,93,0.00,,,0.00,0,Wunderground v.1.15,2013-03-29 09:49:00,
2013-03-29 02:54:00,49.4,47.5,30.16,WSW,244,0.0,0.0,93,0.00,,,0.00,0,Wunderground v.1.15,2013-03-29 09:54:00,
2013-03-29 02:59:00,49.2,47.3,30.16,WSW,244,0.0,1.0,93,0.00,,,0.00,0,Wunderground v.1.15,2013-03-29 09:59:00,
2013-03-29 03:05:00,48.8,47.2,30.17,SSW,209,1.0,1.0,94,0.00,,,0.00,0,Wunderground v.1.15,2013-03-29 10:05:00,
2013-03-29 03:12:00,48.8,47.2,30.17,SSW,209,0.0,1.0,94,0.00,,,0.00,0,Wunderground v.1.15,2013-03-29 10:12:00,
2013-03-29 03:17:00,48.9,47.2,30.16,SSW,209,0.0,2.0,94,0.00,,,0.00,0,Wunderground v.1.15,2013-03-29 10:17:00,
2013-03-29 03:22:00,48.9,47.2,30.16,SSW,209,0.0,1.0,94,0.00,,,0.00,0,Wunderground v.1.15,2013-03-29 10:22:00,
2013-03-29 03:27:00,49.1,47.4,30.16,SSW,209,0.0,1.0,94,0.00,,,0.00,0,Wunderground v.1.15,2013-03-29 10:27:00,
2013-03-29 03:33:00,49.1,47.4,30.17,SSW,209,0.0,0.0,94,0.00,,,0.00,0,Wunderground v.1.15,2013-03-29 10:33:00,
2013-03-29 03:38:00,49.1,47.4,30.17,SSW,209,0.0,0.0,94,0.00,,,0.00,0,Wunderground v.1.15,2013-03-29 10:38:00,
2013-03-29 03:43:00,48.9,47.2,30.17,SSW,209,0.0,0.0,94,0.00,,,0.00,0,Wunderground v.1.15,2013-03-29 10:43:00,
2013-03-29 03:48:00,48.8,47.2,30.17,SSW,209,0.0,0.0,94,0.00,,,0.00,0,Wunderground v.1.15,2013-03-29 10:48:00,
2013-03-29 03:54:00,48.6,47.2,30.17,SSW,209,0.0,0.0,95,0.00,,,0.00,0,Wunderground v.1.15,2013-03-29 10:54:00,
2013-03-29 04:00:00,48.5,47.1,30.17,SSW,209,0.0,0.0,95,0.00,,,0.00,0,Wunderground v.1.15,2013-03-29 11:00:00,
2013-03-29 04:06:00,48.6,47.2,30.17,SSW,209,0.0,2.0,95,0.00,,,0.00,0,Wunderground v.1.15,2013-03-29 11:06:00,
2013-03-29 04:11:00,48.6,47.2,30.17,SSW,209,0.0,0.0,95,0.00,,,0.00,0,Wunderground v.1.15,2013-03-29 11:11:00,
2013-03-29 04:16:00,48.6,47.2,30.17,SSW,209,0.0,0.0,95,0.00,,,0.00,0,Wunderground v.1.15,2013-03-29 11:16:00,
2013-03-29 04:21:00,48.5,47.1,30.17,SSW,209,0.0,0.0,95,0.00,,,0.00,0,Wunderground v.1.15,2013-03-29 11:21:00,
2013-03-29 04:26:00,48.5,47.1,30.17,SSW,209,0.0,0.0,95,0.00,,,0.00,0,Wunderground v.1.15,2013-03-29 11:26:00,
2013-03-29 04:32:00,48.5,47.1,30.17,SSW,209,0.0,0.0,95,0.00,,,0.00,0,Wunderground v.1.15,2013-03-29 11:32:00,
2013-03-29 04:38:00,48.6,47.2,30.18,SSW,209,0.0,0.0,95,0.00,,,0.00,0,Wunderground v.1.15,2013-03-29 11:38:00,
2013-03-29 04:43:00,48.6,47.2,30.17,SSW,209,0.0,0.0,95,0.00,,,0.00,0,Wunderground v.1.15,2013-03-29 11:43:00,
2013-03-29 04:48:00,48.6,47.2,30.17,SSW,209,0.0,0.0,95,0.00,,,0.00,0,Wunderground v.1.15,2013-03-29 11:48:00,
2013-03-29 04:53:00,48.6,47.0,30.17,SSW,209,0.0,0.0,94,0.00,,,0.00,0,Wunderground v.1.15,2013-03-29 11:53:00,
2013-03-29 04:59:00,48.5,46.9,30.17,SSW,209,0.0,0.0,94,0.00,,,0.00,0,Wunderground v.1.15,2013-03-29 11:59:00,
2013-03-29 05:04:00,48.5,46.9,30.18,SSW,209,0.0,0.0,94,0.00,,,0.00,0,Wunderground v.1.15,2013-03-29 12:04:00,
2013-03-29 05:09:00,48.3,46.7,30.18,SSW,209,0.0,0.0,94,0.00,,,0.00,0,Wunderground v.1.15,2013-03-29 12:09:00,
2013-03-29 05:14:00,48.3,46.7,30.17,SSW,209,0.0,0.0,94,0.00,,,0.00,0,Wunderground v.1.15,2013-03-29 12:14:00,
2013-03-29 05:20:00,48.3,46.7,30.18,SSW,209,0.0,0.0,94,0.00,,,0.00,0,Wunderground v.1.15,2013-03-29 12:20:00,
2013-03-29 05:25:00,48.3,46.7,30.18,SSW,209,0.0,0.0,94,0.00,,,0.00,0,Wunderground v.1.15,2013-03-29 12:25:00,
2013-03-29 05:30:00,48.3,46.7,30.18,SSW,209,0.0,0.0,94,0.00,,,0.00,0,Wunderground v.1.15,2013-03-29 12:30:00,
2013-03-29 05:35:00,48.5,46.9,30.18,SSW,209,0.0,1.0,94,0.00,,,0.00,0,Wunderground v.1.15,2013-03-29 12:35:00,
2013-03-29 05:40:00,48.5,46.6,30.18,SSW,209,0.0,0.0,93,0.00,,,0.00,0,Wunderground v.1.15,2013-03-29 12:40:00,
2013-03-29 05:46:00,48.5,46.6,30.19,SSW,209,0.0,0.0,93,0.00,,,0.00,0,Wunderground v.1.15,2013-03-29 12:46:00,
2013-03-29 05:52:00,48.3,46.4,30.19,SSW,209,0.0,0.0,93,0.00,,,0.00,0,Wunderground v.1.15,2013-03-29 12:52:00,
2013-03-29 05:57:00,48.3,46.4,30.19,SSW,209,0.0,0.0,93,0.00,,,0.00,0,Wunderground v.1.15,2013-03-29 12:57:00,
2013-03-29 06:02:00,48.3,46.4,30.19,SSW,209,0.0,0.0,93,0.00,,,0.00,0,Wunderground v.1.15,2013-03-29 13:02:00,
2013-03-29 06:07:00,48.3,46.4,30.19,SSW,209,0.0,0.0,93,0.00,,,0.00,0,Wunderground v.1.15,2013-03-29 13:07:00,
2013-03-29 06:12:00,48.2,46.3,30.19,SSW,209,0.0,1.0,93,0.00,,,0.00,0,Wunderground v.1.15,2013-03-29 13:12:00,
2013-03-29 06:18:00,48.2,46.3,30.19,SSW,209,0.0,1.0,93,0.00,,,0.00,0,Wunderground v.1.15,2013-03-29 13:18:00,
2013-03-29 06:24:00,48.3,46.1,30.19,SSW,209,0.0,1.0,92,0.00,,,0.00,0,Wunderground v.1.15,2013-03-29 13:24:00,
2013-03-29 06:29:00,48.3,46.4,30.19,SSW,209,0.0,1.0,93,0.00,,,0.00,0,Wunderground v.1.15,2013-03-29 13:29:00,
2013-03-29 06:34:00,48.3,46.1,30.19,SSW,209,0.0,1.0,92,0.00,,,0.00,0,Wunderground v.1.15,2013-03-29 13:34:00,
2013-03-29 06:39:00,48.0,46.1,30.19,SSW,209,0.0,1.0,93,0.00,,,0.00,0,Wunderground v.1.15,2013-03-29 13:39:00,
2013-03-29 06:44:00,47.9,46.0,30.19,SSW,209,0.0,0.0,93,0.00,,,0.00,0,Wunderground v.1.15,2013-03-29 13:44:00,
2013-03-29 06:49:00,47.9,46.0,30.19,SSW,209,0.0,0.0,93,0.00,,,0.00,0,Wunderground v.1.15,2013-03-29 13:49:00,
2013-03-29 06:55:00,47.6,45.7,30.19,SSW,209,0.0,0.0,93,0.00,,,0.00,0,Wunderground v.1.15,2013-03-29 13:55:00,
2013-03-29 07:00:00,47.6,46.0,30.19,SSW,209,0.0,0.0,94,0.00,,,0.00,5,Wunderground v.1.15,2013-03-29 14:00:00,
2013-03-29 07:05:00,47.4,45.8,30.19,SSW,209,0.0,0.0,94,0.00,,,0.00,7,Wunderground v.1.15,2013-03-29 14:05:00,
2013-03-29 07:11:00,47.4,45.8,30.19,SSW,209,0.0,0.0,94,0.00,,,0.00,11,Wunderground v.1.15,2013-03-29 14:11:00,
2013-03-29 07:16:00,47.4,45.8,30.20,SSW,209,0.0,0.0,94,0.00,,,0.00,14,Wunderground v.1.15,2013-03-29 14:16:00,
2013-03-29 07:22:00,47.4,45.8,30.20,SSW,209,0.0,0.0,94,0.00,,,0.00,18,Wunderground v.1.15,2013-03-29 14:22:00,
2013-03-29 07:27:00,47.6,46.0,30.20,SSW,209,0.0,1.0,94,0.00,,,0.00,21,Wunderground v.1.15,2013-03-29 14:27:00,
2013-03-29 07:32:00,47.7,46.3,30.20,SSW,209,0.0,0.0,95,0.00,,,0.00,25,Wunderground v.1.15,2013-03-29 14:32:00,
2013-03-29 07:37:00,47.6,46.0,30.20,SSW,209,0.0,1.0,94,0.00,,,0.00,32,Wunderground v.1.15,2013-03-29 14:37:00,
2013-03-29 07:43:00,47.7,46.3,30.21,SSW,209,0.0,0.0,95,0.00,,,0.00,35,Wunderground v.1.15,2013-03-29 14:43:00,
2013-03-29 07:48:00,47.7,46.3,30.20,SSW,209,0.0,0.0,95,0.00,,,0.00,40,Wunderground v.1.15,2013-03-29 14:48:00,
2013-03-29 07:53:00,47.9,46.5,30.21,SSW,209,0.0,0.0,95,0.00,,,0.00,49,Wunderground v.1.15,2013-03-29 14:53:00,
2013-03-29 07:58:00,48.0,46.6,30.21,SSW,209,0.0,0.0,95,0.00,,,0.00,54,Wunderground v.1.15,2013-03-29 14:58:00,
2013-03-29 08:03:00,48.0,46.4,30.21,SSW,209,0.0,0.0,94,0.00,,,0.00,62,Wunderground v.1.15,2013-03-29 15:03:00,
2013-03-29 08:08:00,48.2,46.6,30.21,SSW,209,0.0,0.0,94,0.00,,,0.00,79,Wunderground v.1.15,2013-03-29 15:08:00,
2013-03-29 08:13:00,48.3,46.7,30.21,SSW,209,0.0,0.0,94,0.00,,,0.00,107,Wunderground v.1.15,2013-03-29 15:13:00,
2013-03-29 08:18:00,48.5,46.9,30.21,SSW,209,0.0,0.0,94,0.00,,,0.00,185,Wunderground v.1.15,2013-03-29 15:18:00,
2013-03-29 08:24:00,48.9,47.2,30.21,SSW,209,0.0,0.0,94,0.00,,,0.00,105,Wunderground v.1.15,2013-03-29 15:24:00,
2013-03-29 08:29:00,49.2,47.3,30.21,SSW,209,0.0,0.0,93,0.00,,,0.00,132,Wunderground v.1.15,2013-03-29 15:29:00,
2013-03-29 08:34:00,49.4,47.2,30.21,SSW,209,0.0,0.0,92,0.00,,,0.00,172,Wunderground v.1.15,2013-03-29 15:34:00,
2013-03-29 08:39:00,49.6,47.4,30.21,SSW,209,0.0,0.0,92,0.00,,,0.00,153,Wunderground v.1.15,2013-03-29 15:39:00,
2013-03-29 08:44:00,49.8,47.3,30.21,SSW,209,0.0,1.0,91,0.00,,,0.00,163,Wunderground v.1.15,2013-03-29 15:44:00,
2013-03-29 08:49:00,49.9,47.4,30.21,SSW,209,0.0,1.0,91,0.00,,,0.00,181,Wunderground v.1.15,2013-03-29 15:49:00,
2013-03-29 08:54:00,50.2,47.4,30.21,SSW,209,0.0,1.0,90,0.00,,,0.00,149,Wunderground v.1.15,2013-03-29 15:54:00,
2013-03-29 09:00:00,50.4,47.3,30.21,SSW,209,0.0,0.0,89,0.00,,,0.00,130,Wunderground v.1.15,2013-03-29 16:00:00,
2013-03-29 09:05:00,50.7,47.0,30.21,SSW,209,0.0,0.0,87,0.00,,,0.00,132,Wunderground v.1.15,2013-03-29 16:05:00,
2013-03-29 09:11:00,51.0,47.0,30.21,SSW,209,0.0,0.0,86,0.00,,,0.00,139,Wunderground v.1.15,2013-03-29 16:11:00,
2013-03-29 09:17:00,51.0,47.0,30.22,SSW,209,0.0,1.0,86,0.00,,,0.00,153,Wunderground v.1.15,2013-03-29 16:17:00,
2013-03-29 09:23:00,51.0,47.0,30.22,SSW,209,0.0,0.0,86,0.00,,,0.00,169,Wunderground v.1.15,2013-03-29 16:23:00,
2013-03-29 09:28:00,51.3,47.3,30.22,SSW,209,0.0,0.0,86,0.00,,,0.00,185,Wunderground v.1.15,2013-03-29 16:28:00,
2013-03-29 09:33:00,51.4,47.0,30.22,SSW,209,0.0,0.0,85,0.00,,,0.00,188,Wunderground v.1.15,2013-03-29 16:33:00,
2013-03-29 09:38:00,51.6,46.6,30.22,SSW,209,0.0,0.0,83,0.00,,,0.00,214,Wunderground v.1.15,2013-03-29 16:38:00,
2013-03-29 09:43:00,51.9,47.2,30.22,SSW,209,0.0,2.0,84,0.00,,,0.00,174,Wunderground v.1.15,2013-03-29 16:43:00,
2013-03-29 09:48:00,51.9,46.9,30.22,SSW,209,0.0,2.0,83,0.00,,,0.00,185,Wunderground v.1.15,2013-03-29 16:48:00,
2013-03-29 09:54:00,51.9,47.2,30.22,SSW,208,0.0,1.0,84,0.00,,,0.00,211,Wunderground v.1.15,2013-03-29 16:54:00,
2013-03-29 10:00:00,51.9,47.2,30.22,SSW,208,0.0,1.0,84,0.00,,,0.00,248,Wunderground v.1.15,2013-03-29 17:00:00,
2013-03-29 10:05:00,52.0,47.0,30.22,SSW,208,0.0,1.0,83,0.00,,,0.00,413,Wunderground v.1.15,2013-03-29 17:05:00,
2013-03-29 10:11:00,52.5,47.2,30.22,SSW,208,1.0,1.0,82,0.00,,,0.00,345,Wunderground v.1.15,2013-03-29 17:11:00,
2013-03-29 10:16:00,53.1,47.1,30.22,SSW,208,1.0,2.0,80,0.00,,,0.00,394,Wunderground v.1.15,2013-03-29 17:16:00,
2013-03-29 10:22:00,53.6,47.2,30.22,SSW,208,0.0,1.0,79,0.00,,,0.00,341,Wunderground v.1.15,2013-03-29 17:22:00,
2013-03-29 10:27:00,54.1,47.4,30.22,SSE,155,0.0,2.0,78,0.00,,,0.00,350,Wunderground v.1.15,2013-03-29 17:27:00,
2013-03-29 10:32:00,54.2,47.1,30.22,East,89,1.0,2.0,77,0.00,,,0.00,341,Wunderground v.1.15,2013-03-29 17:32:00,
2013-03-29 10:37:00,54.2,47.1,30.22,East,88,1.0,2.0,77,0.00,,,0.00,452,Wunderground v.1.15,2013-03-29 17:37:00,
2013-03-29 10:42:00,54.7,47.3,30.22,SSW,203,1.0,1.0,76,0.00,,,0.00,619,Wunderground v.1.15,2013-03-29 17:42:00,
2013-03-29 10:47:00,55.4,47.2,30.22,ESE,111,1.0,2.0,74,0.00,,,0.00,640,Wunderground v.1.15,2013-03-29 17:47:00,
2013-03-29 10:52:00,56.0,47.5,30.22,SSE,167,1.0,3.0,73,0.00,,,0.00,645,Wunderground v.1.15,2013-03-29 17:52:00,
2013-03-29 10:57:00,56.5,47.6,30.22,SSE,167,1.0,3.0,72,0.00,,,0.00,668,Wunderground v.1.15,2013-03-29 17:57:00,
2013-03-29 11:02:00,57.0,47.7,30.22,SSE,167,0.0,2.0,71,0.00,,,0.00,714,Wunderground v.1.15,2013-03-29 18:02:00,
2013-03-29 11:07:00,57.5,47.8,30.22,SSE,167,0.0,2.0,70,0.00,,,0.00,606,Wunderground v.1.15,2013-03-29 18:07:00,
2013-03-29 11:13:00,58.1,48.4,30.22,SSE,167,0.0,1.0,70,0.00,,,0.00,339,Wunderground v.1.15,2013-03-29 18:13:00,
2013-03-29 11:19:00,58.7,48.6,30.22,South,169,0.0,2.0,69,0.00,,,0.00,452,Wunderground v.1.15,2013-03-29 18:19:00,
2013-03-29 11:24:00,58.0,48.3,30.22,SSE,168,1.0,2.0,70,0.00,,,0.00,424,Wunderground v.1.15,2013-03-29 18:24:00,
2013-03-29 11:29:00,58.0,48.3,30.22,SSE,168,1.0,3.0,70,0.00,,,0.00,424,Wunderground v.1.15,2013-03-29 18:29:00,
2013-03-29 11:34:00,58.1,48.0,30.22,SSE,168,0.0,1.0,69,0.00,,,0.00,561,Wunderground v.1.15,2013-03-29 18:34:00,
2013-03-29 11:39:00,58.7,47.4,30.22,SSE,168,0.0,1.0,66,0.00,,,0.00,701,Wunderground v.1.15,2013-03-29 18:39:00,
2013-03-29 11:44:00,59.3,47.5,30.22,ENE,59,1.0,3.0,65,0.00,,,0.00,712,Wunderground v.1.15,2013-03-29 18:44:00,
2013-03-29 11:49:00,60.1,47.9,30.22,WSW,242,1.0,3.0,64,0.00,,,0.00,766,Wunderground v.1.15,2013-03-29 18:49:00,
2013-03-29 11:54:00,59.9,48.1,30.22,West,260,1.0,4.0,65,0.00,,,0.00,729,Wunderground v.1.15,2013-03-29 18:54:00,
2013-03-29 12:00:00,60.5,49.1,30.22,SW,223,2.0,4.0,66,0.00,,,0.00,868,Wunderground v.1.15,2013-03-29 19:00:00,
2013-03-29 12:05:00,60.2,48.4,30.22,NW,320,3.0,5.0,65,0.00,,,0.00,800,Wunderground v.1.15,2013-03-29 19:05:00,
2013-03-29 12:11:00,60.4,48.6,30.22,NW,306,3.0,3.0,65,0.00,,,0.00,262,Wunderground v.1.15,2013-03-29 19:11:00,
2013-03-29 12:17:00,60.5,48.3,30.21,NW,306,1.0,3.0,64,0.00,,,0.00,884,Wunderground v.1.15,2013-03-29 19:17:00,
2013-03-29 12:22:00,61.0,48.3,30.21,NNW,327,1.0,4.0,63,0.00,,,0.00,886,Wunderground v.1.15,2013-03-29 19:22:00,
2013-03-29 12:27:00,60.4,48.2,30.21,NW,309,3.0,6.0,64,0.00,,,0.00,951,Wunderground v.1.15,2013-03-29 19:27:00,
2013-03-29 12:32:00,60.7,48.0,30.21,North,355,4.0,4.0,63,0.00,,,0.00,418,Wunderground v.1.15,2013-03-29 19:32:00,
2013-03-29 12:37:00,60.2,48.0,30.21,West,275,2.0,4.0,64,0.00,,,0.00,142,Wunderground v.1.15,2013-03-29 19:37:00,
2013-03-29 12:42:00,60.5,48.3,30.20,WSW,237,2.0,2.0,64,0.00,,,0.00,791,Wunderground v.1.15,2013-03-29 19:42:00,
2013-03-29 12:48:00,61.3,48.2,30.20,ENE,78,1.0,3.0,62,0.00,,,0.00,800,Wunderground v.1.15,2013-03-29 19:48:00,
2013-03-29 12:53:00,62.0,47.5,30.20,WSW,248,2.0,6.0,59,0.00,,,0.00,828,Wunderground v.1.15,2013-03-29 19:53:00,
2013-03-29 12:58:00,62.4,48.8,30.20,NNE,19,2.0,6.0,61,0.00,,,0.00,853,Wunderground v.1.15,2013-03-29 19:58:00,
2013-03-29 13:04:00,62.9,48.3,30.20,North,349,2.0,7.0,59,0.00,,,0.00,902,Wunderground v.1.15,2013-03-29 20:04:00,
2013-03-29 13:09:00,62.6,48.1,30.20,NNW,335,3.0,8.0,59,0.00,,,0.00,849,Wunderground v.1.15,2013-03-29 20:09:00,
2013-03-29 13:14:00,62.6,47.6,30.20,West,270,3.0,3.0,58,0.00,,,0.00,835,Wunderground v.1.15,2013-03-29 20:14:00,
2013-03-29 13:19:00,62.6,48.5,30.20,NNW,336,3.0,6.0,60,0.00,,,0.00,461,Wunderground v.1.15,2013-03-29 20:19:00,
2013-03-29 13:24:00,62.7,48.6,30.20,SSW,203,4.0,6.0,60,0.00,,,0.00,853,Wunderground v.1.15,2013-03-29 20:24:00,
2013-03-29 13:29:00,63.2,48.6,30.20,NE,51,3.0,6.0,59,0.00,,,0.00,789,Wunderground v.1.15,2013-03-29 20:29:00,
2013-03-29 13:35:00,63.5,48.0,30.20,ENE,65,3.0,4.0,57,0.00,,,0.00,877,Wunderground v.1.15,2013-03-29 20:35:00,
2013-03-29 13:40:00,64.0,47.5,30.20,NNE,15,2.0,3.0,55,0.00,,,0.00,503,Wunderground v.1.15,2013-03-29 20:40:00,
2013-03-29 13:45:00,64.7,48.2,30.19,NNE,14,1.0,3.0,55,0.00,,,0.00,860,Wunderground v.1.15,2013-03-29 20:45:00,
2013-03-29 13:51:00,63.7,47.2,30.19,WNW,292,3.0,5.0,55,0.00,,,0.00,605,Wunderground v.1.15,2013-03-29 20:51:00,
2013-03-29 13:57:00,64.0,48.9,30.19,West,272,3.0,7.0,58,0.00,,,0.00,712,Wunderground v.1.15,2013-03-29 20:57:00,
2013-03-29 14:02:00,64.0,48.0,30.19,WNW,284,3.0,6.0,56,0.00,,,0.00,670,Wunderground v.1.15,2013-03-29 21:02:00,
2013-03-29 14:08:00,63.9,47.4,30.19,NW,310,4.0,8.0,55,0.00,,,0.00,496,Wunderground v.1.15,2013-03-29 21:08:00,
2013-03-29 14:13:00,64.0,48.0,30.19,WSW,250,4.0,4.0,56,0.00,,,0.00,513,Wunderground v.1.15,2013-03-29 21:13:00,
2013-03-29 14:18:00,63.9,46.4,30.19,NW,319,4.0,8.0,53,0.00,,,0.00,492,Wunderground v.1.15,2013-03-29 21:18:00,
2013-03-29 14:23:00,63.7,46.2,30.19,West,271,5.0,5.0,53,0.00,,,0.00,478,Wunderground v.1.15,2013-03-29 21:23:00,
2013-03-29 14:29:00,64.2,47.2,30.19,WNW,290,3.0,5.0,54,0.00,,,0.00,341,Wunderground v.1.15,2013-03-29 21:29:00,
2013-03-29 14:35:00,64.8,46.8,30.18,NW,315,2.0,5.0,52,0.00,,,0.00,246,Wunderground v.1.15,2013-03-29 21:35:00,
2013-03-29 14:40:00,64.8,46.8,30.18,NW,319,2.0,2.0,52,0.00,,,0.00,311,Wunderground v.1.15,2013-03-29 21:40:00,
2013-03-29 14:45:00,64.8,45.2,30.18,NW,319,1.0,2.0,49,0.00,,,0.00,330,Wunderground v.1.15,2013-03-29 21:45:00,
2013-03-29 14:50:00,65.0,46.9,30.18,NW,321,0.0,1.0,52,0.00,,,0.00,367,Wunderground v.1.15,2013-03-29 21:50:00,
2013-03-29 14:56:00,64.8,46.2,30.18,WSW,258,2.0,5.0,51,0.00,,,0.00,380,Wunderground v.1.15,2013-03-29 21:56:00,
2013-03-29 15:01:00,65.3,45.6,30.17,WNW,288,2.0,7.0,49,0.00,,,0.00,315,Wunderground v.1.15,2013-03-29 22:01:00,
2013-03-29 15:07:00,64.8,45.2,30.18,West,280,3.0,7.0,49,0.00,,,0.00,334,Wunderground v.1.15,2013-03-29 22:07:00,
2013-03-29 15:12:00,64.3,44.2,30.18,WNW,298,5.0,6.0,48,0.00,,,0.00,339,Wunderground v.1.15,2013-03-29 22:12:00,
2013-03-29 15:17:00,64.2,45.2,30.18,NW,316,4.0,8.0,50,0.00,,,0.00,313,Wunderground v.1.15,2013-03-29 22:17:00,
2013-03-29 15:23:00,64.5,45.4,30.17,West,271,4.0,8.0,50,0.00,,,0.00,503,Wunderground v.1.15,2013-03-29 22:23:00,
2013-03-29 15:28:00,64.2,44.1,30.17,West,281,4.0,8.0,48,0.00,,,0.00,287,Wunderground v.1.15,2013-03-29 22:28:00,
2013-03-29 15:34:00,64.3,44.2,30.17,WNW,300,4.0,6.0,48,0.00,,,0.00,325,Wunderground v.1.15,2013-03-29 22:34:00,
2013-03-29 15:39:00,64.7,44.0,30.17,West,267,4.0,6.0,47,0.00,,,0.00,446,Wunderground v.1.15,2013-03-29 22:39:00,
2013-03-29 15:44:00,65.5,43.6,30.17,NNW,329,3.0,4.0,45,0.00,,,0.00,545,Wunderground v.1.15,2013-03-29 22:44:00,
2013-03-29 15:50:00,65.3,42.2,30.17,NNW,342,4.0,5.0,43,0.00,,,0.00,295,Wunderground v.1.15,2013-03-29 22:50:00,
2013-03-29 15:55:00,65.2,42.1,30.17,NNW,336,4.0,7.0,43,0.00,,,0.00,304,Wunderground v.1.15,2013-03-29 22:55:00,
2013-03-29 16:01:00,65.3,42.2,30.17,NW,310,4.0,4.0,43,0.00,,,0.00,357,Wunderground v.1.15,2013-03-29 23:01:00,
2013-03-29 16:06:00,65.8,42.1,30.17,NE,54,3.0,4.0,42,0.00,,,0.00,329,Wunderground v.1.15,2013-03-29 23:06:00,
2013-03-29 16:12:00,66.0,41.6,30.17,WNW,302,2.0,5.0,41,0.00,,,0.00,197,Wunderground v.1.15,2013-03-29 23:12:00,
2013-03-29 16:17:00,65.8,42.7,30.16,WNW,290,2.0,5.0,43,0.00,,,0.00,178,Wunderground v.1.15,2013-03-29 23:17:00,
2013-03-29 16:23:00,66.0,42.9,30.16,NE,45,2.0,3.0,43,0.00,,,0.00,318,Wunderground v.1.15,2013-03-29 23:23:00,
2013-03-29 16:28:00,65.6,43.1,30.17,NE,36,2.0,4.0,44,0.00,,,0.00,188,Wunderground v.1.15,2013-03-29 23:28:00,
2013-03-29 16:33:00,65.5,43.6,30.17,NW,319,3.0,5.0,45,0.00,,,0.00,174,Wunderground v.1.15,2013-03-29 23:33:00,
2013-03-29 16:38:00,65.8,42.7,30.17,WNW,282,3.0,5.0,43,0.00,,,0.00,547,Wunderground v.1.15,2013-03-29 23:38:00,
2013-03-29 16:44:00,66.4,42.0,30.16,WNW,282,2.0,3.0,41,0.00,,,0.00,520,Wunderground v.1.15,2013-03-29 23:44:00,
2013-03-29 16:49:00,66.8,41.7,30.16,ENE,69,1.0,3.0,40,0.00,,,0.00,497,Wunderground v.1.15,2013-03-29 23:49:00,
2013-03-29 16:55:00,66.9,42.4,30.16,West,267,1.0,3.0,41,0.00,,,0.00,482,Wunderground v.1.15,2013-03-29 23:55:00,
2013-03-29 17:00:00,68.1,42.2,30.16,WSW,257,1.0,1.0,39,0.00,,,0.00,519,Wunderground v.1.15,2013-03-30 00:00:00,
2013-03-29 17:05:00,68.6,42.6,30.16,NW,321,1.0,9.0,39,0.00,,,0.00,534,Wunderground v.1.15,2013-03-30 00:05:00,
2013-03-29 17:11:00,68.3,42.4,30.16,WNW,293,3.0,4.0,39,0.00,,,0.00,559,Wunderground v.1.15,2013-03-30 00:11:00,
2013-03-29 17:16:00,67.8,42.6,30.16,NW,317,3.0,4.0,40,0.00,,,0.00,206,Wunderground v.1.15,2013-03-30 00:16:00,
2013-03-29 17:21:00,67.3,42.8,30.16,NW,323,3.0,5.0,41,0.00,,,0.00,192,Wunderground v.1.15,2013-03-30 00:21:00,
2013-03-29 17:26:00,67.1,42.6,30.16,WNW,300,2.0,5.0,41,0.00,,,0.00,188,Wunderground v.1.15,2013-03-30 00:26:00,
2013-03-29 17:31:00,67.1,42.6,30.16,NE,42,2.0,2.0,41,0.00,,,0.00,169,Wunderground v.1.15,2013-03-30 00:31:00,
2013-03-29 17:36:00,66.9,43.7,30.16,East,86,2.0,5.0,43,0.00,,,0.00,213,Wunderground v.1.15,2013-03-30 00:36:00,
2013-03-29 17:41:00,66.4,44.4,30.16,NE,44,2.0,4.0,45,0.00,,,0.00,186,Wunderground v.1.15,2013-03-30 00:41:00,
2013-03-29 17:47:00,66.4,43.8,30.16,NNW,346,2.0,5.0,44,0.00,,,0.00,137,Wunderground v.1.15,2013-03-30 00:47:00,
2013-03-29 17:53:00,66.4,45.0,30.16,NNE,15,3.0,3.0,46,0.00,,,0.00,227,Wunderground v.1.15,2013-03-30 00:53:00,
2013-03-29 17:58:00,66.6,44.6,30.16,NE,51,3.0,4.0,45,0.00,,,0.00,267,Wunderground v.1.15,2013-03-30 00:58:00,
2013-03-29 18:03:00,66.8,44.2,30.16,NNE,17,3.0,4.0,44,0.00,,,0.00,243,Wunderground v.1.15,2013-03-30 01:03:00,
2013-03-29 18:08:00,66.9,44.3,30.16,NW,305,3.0,6.0,44,0.00,,,0.00,221,Wunderground v.1.15,2013-03-30 01:08:00,
2013-03-29 18:14:00,67.1,44.4,30.15,NW,318,2.0,5.0,44,0.00,,,0.00,197,Wunderground v.1.15,2013-03-30 01:14:00,
2013-03-29 18:19:00,66.8,44.2,30.15,NW,306,3.0,7.0,44,0.00,,,0.00,167,Wunderground v.1.15,2013-03-30 01:19:00,
2013-03-29 18:24:00,66.4,44.4,30.15,NW,320,4.0,4.0,45,0.00,,,0.00,135,Wunderground v.1.15,2013-03-30 01:24:00,
2013-03-29 18:29:00,66.4,45.0,30.15,WNW,299,4.0,4.0,46,0.00,,,0.00,134,Wunderground v.1.15,2013-03-30 01:29:00,
2013-03-29 18:34:00,66.1,45.3,30.15,NW,323,4.0,7.0,47,0.00,,,0.00,120,Wunderground v.1.15,2013-03-30 01:34:00,
2013-03-29 18:40:00,65.8,45.6,30.15,WNW,300,4.0,4.0,48,0.00,,,0.00,97,Wunderground v.1.15,2013-03-30 01:40:00,
2013-03-29 18:46:00,65.8,45.6,30.15,NW,324,4.0,6.0,48,0.00,,,0.00,83,Wunderground v.1.15,2013-03-30 01:46:00,
2013-03-29 18:51:00,65.5,45.8,30.15,WNW,303,3.0,3.0,49,0.00,,,0.00,72,Wunderground v.1.15,2013-03-30 01:51:00,
2013-03-29 18:56:00,65.2,46.1,30.15,WNW,297,4.0,7.0,50,0.00,,,0.00,58,Wunderground v.1.15,2013-03-30 01:56:00,
2013-03-29 19:01:00,64.8,45.7,30.15,NW,305,3.0,4.0,50,0.00,,,0.00,37,Wunderground v.1.15,2013-03-30 02:01:00,
2013-03-29 19:06:00,64.3,45.3,30.15,NW,311,3.0,5.0,50,0.00,,,0.00,26,Wunderground v.1.15,2013-03-30 02:06:00,
2013-03-29 19:11:00,63.9,45.4,30.15,WNW,298,3.0,5.0,51,0.00,,,0.00,23,Wunderground v.1.15,2013-03-30 02:11:00,
2013-03-29 19:16:00,63.5,45.6,30.15,WNW,303,3.0,5.0,52,0.00,,,0.00,19,Wunderground v.1.15,2013-03-30 02:16:00,
2013-03-29 19:22:00,63.2,45.3,30.15,NW,305,2.0,3.0,52,0.00,,,0.00,16,Wunderground v.1.15,2013-03-30 02:22:00,
2013-03-29 19:27:00,63.1,45.2,30.16,NW,305,2.0,3.0,52,0.00,,,0.00,12,Wunderground v.1.15,2013-03-30 02:27:00,
2013-03-29 19:33:00,62.7,45.3,30.15,NW,305,1.0,1.0,53,0.00,,,0.00,7,Wunderground v.1.15,2013-03-30 02:33:00,
2013-03-29 19:38:00,62.4,45.5,30.15,NW,305,0.0,1.0,54,0.00,,,0.00,0,Wunderground v.1.15,2013-03-30 02:38:00,
2013-03-29 19:43:00,62.0,45.6,30.15,NW,305,0.0,2.0,55,0.00,,,0.00,0,Wunderground v.1.15,2013-03-30 02:43:00,
2013-03-29 19:48:00,61.3,45.5,30.15,NW,305,1.0,2.0,56,0.00,,,0.00,0,Wunderground v.1.15,2013-03-30 02:48:00,
2013-03-29 19:53:00,61.2,45.4,30.16,NW,305,0.0,1.0,56,0.00,,,0.00,0,Wunderground v.1.15,2013-03-30 02:53:00,
2013-03-29 19:58:00,60.9,45.1,30.16,NW,305,0.0,1.0,56,0.00,,,0.00,0,Wunderground v.1.15,2013-03-30 02:58:00,
2013-03-29 20:03:00,60.4,45.5,30.15,NW,305,0.0,6.0,58,0.00,,,0.00,0,Wunderground v.1.15,2013-03-30 03:03:00,
2013-03-29 20:08:00,59.8,45.9,30.16,NW,305,0.0,6.0,60,0.00,,,0.00,0,Wunderground v.1.15,2013-03-30 03:08:00,
2013-03-29 20:13:00,59.2,45.8,30.16,NW,305,0.0,1.0,61,0.00,,,0.00,0,Wunderground v.1.15,2013-03-30 03:13:00,
2013-03-29 20:19:00,58.7,45.7,30.16,NW,305,0.0,1.0,62,0.00,,,0.00,0,Wunderground v.1.15,2013-03-30 03:19:00,
2013-03-29 20:24:00,58.4,46.3,30.16,NW,305,0.0,0.0,64,0.00,,,0.00,0,Wunderground v.1.15,2013-03-30 03:24:00,
2013-03-29 20:29:00,58.0,46.7,30.17,NW,305,0.0,0.0,66,0.00,,,0.00,0,Wunderground v.1.15,2013-03-30 03:29:00,
2013-03-29 20:35:00,57.2,46.7,30.17,NW,305,0.0,0.0,68,0.00,,,0.00,0,Wunderground v.1.15,2013-03-30 03:35:00,
2013-03-29 20:40:00,56.6,46.2,30.17,NW,305,0.0,0.0,68,0.00,,,0.00,0,Wunderground v.1.15,2013-03-30 03:40:00,
2013-03-29 20:45:00,56.2,46.2,30.17,NW,305,0.0,0.0,69,0.00,,,0.00,0,Wunderground v.1.15,2013-03-30 03:45:00,
2013-03-29 20:50:00,55.7,46.4,30.17,NW,305,0.0,0.0,71,0.00,,,0.00,0,Wunderground v.1.15,2013-03-30 03:50:00,
2013-03-29 20:56:00,55.1,45.9,30.17,NW,305,0.0,0.0,71,0.00,,,0.00,0,Wunderground v.1.15,2013-03-30 03:56:00,
2013-03-29 21:00:00,54.8,46.3,30.17,NW,305,0.0,0.0,73,0.00,,,0.00,0,Wunderground v.1.15,2013-03-30 04:00:00,
2013-03-29 21:01:00,54.8,46.3,30.17,NW,305,0.0,2.0,73,0.00,,,0.00,0,Wunderground v.1.15,2013-03-30 04:01:00,
2013-03-29 21:03:00,54.7,46.6,30.17,NW,305,0.0,2.0,74,0.00,,,0.00,0,Wunderground v.1.15,2013-03-30 04:03:00,
2013-03-29 21:04:00,54.5,46.4,30.17,NW,305,0.0,2.0,74,0.00,,,0.00,0,Wunderground v.1.15,2013-03-30 04:04:00,
2013-03-29 21:09:00,54.2,46.4,30.18,NW,305,0.0,2.0,75,0.00,,,0.00,0,Wunderground v.1.15,2013-03-30 04:09:00,
2013-03-29 21:14:00,53.9,46.2,30.18,NW,305,0.0,0.0,75,0.00,,,0.00,0,Wunderground v.1.15,2013-03-30 04:14:00,
2013-03-29 21:19:00,53.6,46.2,30.18,NW,305,0.0,0.0,76,0.00,,,0.00,0,Wunderground v.1.15,2013-03-30 04:19:00,
2013-03-29 21:24:00,53.2,46.2,30.18,NW,305,0.0,0.0,77,0.00,,,0.00,0,Wunderground v.1.15,2013-03-30 04:24:00,
2013-03-29 21:29:00,52.8,45.8,30.18,NW,305,0.0,0.0,77,0.00,,,0.00,0,Wunderground v.1.15,2013-03-30 04:29:00,
2013-03-29 21:35:00,52.5,45.8,30.19,NW,305,0.0,0.0,78,0.00,,,0.00,0,Wunderground v.1.15,2013-03-30 04:35:00,
2013-03-29 21:41:00,52.3,45.6,30.18,NW,305,0.0,2.0,78,0.00,,,0.00,0,Wunderground v.1.15,2013-03-30 04:41:00,
2013-03-29 21:46:00,52.2,45.9,30.18,NW,305,1.0,2.0,79,0.00,,,0.00,0,Wunderground v.1.15,2013-03-30 04:46:00,
2013-03-29 21:52:00,51.6,45.6,30.18,NW,305,0.0,0.0,80,0.00,,,0.00,0,Wunderground v.1.15,2013-03-30 04:52:00,
2013-03-29 21:57:00,51.6,45.6,30.18,NW,305,0.0,0.0,80,0.00,,,0.00,0,Wunderground v.1.15,2013-03-30 04:57:00,
2013-03-29 22:02:00,51.1,45.5,30.19,NW,305,0.0,0.0,81,0.00,,,0.00,0,Wunderground v.1.15,2013-03-30 05:02:00,
2013-03-29 22:07:00,50.8,45.2,30.19,NW,305,0.0,0.0,81,0.00,,,0.00,0,Wunderground v.1.15,2013-03-30 05:07:00,
2013-03-29 22:13:00,50.5,45.5,30.19,NW,305,0.0,0.0,83,0.00,,,0.00,0,Wunderground v.1.15,2013-03-30 05:13:00,
2013-03-29 22:18:00,50.1,45.5,30.19,NW,305,0.0,0.0,84,0.00,,,0.00,0,Wunderground v.1.15,2013-03-30 05:18:00,
2013-03-29 22:23:00,49.9,45.6,30.20,NW,305,0.0,1.0,85,0.00,,,0.00,0,Wunderground v.1.15,2013-03-30 05:23:00,
2013-03-29 22:28:00,49.8,45.5,30.19,NW,305,0.0,1.0,85,0.00,,,0.00,0,Wunderground v.1.15,2013-03-30 05:28:00,
2013-03-29 22:33:00,49.8,45.5,30.20,NW,305,0.0,0.0,85,0.00,,,0.00,0,Wunderground v.1.15,2013-03-30 05:33:00,
2013-03-29 22:39:00,49.6,45.6,30.20,NW,305,0.0,0.0,86,0.00,,,0.00,0,Wunderground v.1.15,2013-03-30 05:39:00,
2013-03-29 22:44:00,49.4,45.4,30.20,NW,305,0.0,0.0,86,0.00,,,0.00,0,Wunderground v.1.15,2013-03-30 05:44:00,
2013-03-29 22:49:00,49.1,45.4,30.20,NW,305,0.0,0.0,87,0.00,,,0.00,0,Wunderground v.1.15,2013-03-30 05:49:00,
2013-03-29 22:54:00,48.8,45.1,30.20,NW,305,0.0,0.0,87,0.00,,,0.00,0,Wunderground v.1.15,2013-03-30 05:54:00,
2013-03-29 22:59:00,48.6,44.9,30.20,NW,305,0.0,0.0,87,0.00,,,0.00,0,Wunderground v.1.15,2013-03-30 05:59:00,
2013-03-29 23:04:00,48.5,44.8,30.20,NW,305,0.0,1.0,87,0.00,,,0.00,0,Wunderground v.1.15,2013-03-30 06:04:00,
2013-03-29 23:09:00,48.3,44.6,30.20,NW,305,0.0,1.0,87,0.00,,,0.00,0,Wunderground v.1.15,2013-03-30 06:09:00,
2013-03-29 23:15:00,48.2,44.5,30.20,NW,305,0.0,0.0,87,0.00,,,0.00,0,Wunderground v.1.15,2013-03-30 06:15:00,
2013-03-29 23:20:00,47.9,44.5,30.20,NW,305,0.0,0.0,88,0.00,,,0.00,0,Wunderground v.1.15,2013-03-30 06:20:00,
2013-03-29 23:25:00,47.6,44.5,30.20,NW,305,0.0,0.0,89,0.00,,,0.00,0,Wunderground v.1.15,2013-03-30 06:25:00,
2013-03-29 23:30:00,47.4,44.6,30.20,NW,305,0.0,0.0,90,0.00,,,0.00,0,Wunderground v.1.15,2013-03-30 06:30:00,
2013-03-29 23:35:00,47.3,44.5,30.21,NW,305,0.0,0.0,90,0.00,,,0.00,0,Wunderground v.1.15,2013-03-30 06:35:00,
2013-03-29 23:40:00,47.3,44.5,30.20,NW,305,0.0,0.0,90,0.00,,,0.00,0,Wunderground v.1.15,2013-03-30 06:40:00,
2013-03-29 23:45:00,47.0,44.2,30.21,NW,305,0.0,0.0,90,0.00,,,0.00,0,Wunderground v.1.15,2013-03-30 06:45:00,
2013-03-29 23:50:00,46.5,44.0,30.21,NW,305,0.0,0.0,91,0.00,,,0.00,0,Wunderground v.1.15,2013-03-30 06:50:00,
2013-03-29 23:55:00,46.4,43.9,30.21,NW,305,0.0,0.0,91,0.00,,,0.00,0,Wunderground v.1.15,2013-03-30 06:55:00,